Time;durP1;ratioP1;P1;durP2;ratioP2;P2;SDS_P1;SDS_P2;PMS_P1;PMS_P2;Temp;Humidity;BMP_temperature;BMP_pressure;BME280_temperature;BME280_humidity;BME280_pressure;Samples;Min_cycle;Max_cycle;Signal;HPM_P1;HPM_P2
2022/11/02 00:00:27;;;;;;;2.30;0.80;;;13.40;72.70;;;;;;2470836;54;21095;-81
2022/11/02 00:02:53;;;;;;;4.22;1.00;;;13.40;72.70;;;;;;2469400;54;21007;-81
2022/11/02 00:05:23;;;;;;;2.58;0.70;;;13.40;72.80;;;;;;2468676;55;20953;-80
2022/11/02 00:08:01;;;;;;;2.70;0.77;;;13.40;73.00;;;;;;2502996;55;20983;-81
2022/11/02 00:10:28;;;;;;;2.62;0.80;;;13.40;72.90;;;;;;2255930;55;20969;-81
2022/11/02 00:12:55;;;;;;;3.15;0.80;;;13.50;73.50;;;;;;2271998;55;20927;-81
2022/11/02 00:15:21;;;;;;;7.00;1.27;;;13.40;73.60;;;;;;2258651;56;21217;-81
2022/11/02 00:17:48;;;;;;;2.30;0.70;;;13.50;73.80;;;;;;2260705;55;21033;-81
2022/11/02 00:20:16;;;;;;;4.95;0.90;;;13.50;74.00;;;;;;2252933;56;20987;-81
2022/11/02 00:22:42;;;;;;;2.33;0.73;;;13.50;74.10;;;;;;2512250;55;20919;-81
2022/11/02 00:25:11;;;;;;;3.05;0.70;;;13.60;74.30;;;;;;2447657;55;20975;-81
2022/11/02 00:27:37;;;;;;;3.62;0.93;;;13.60;74.30;;;;;;2480451;54;21875;-81
2022/11/02 00:30:05;;;;;;;3.78;0.80;;;13.70;74.50;;;;;;2469133;54;21092;-81
2022/11/02 00:32:32;;;;;;;1.98;0.52;;;13.70;74.60;;;;;;2478197;54;21010;-81
2022/11/02 00:34:58;;;;;;;6.03;0.88;;;13.70;74.70;;;;;;2484323;55;22418;-81
2022/11/02 00:37:25;;;;;;;1.98;0.80;;;13.80;74.90;;;;;;2472493;55;20978;-81
2022/11/02 00:39:51;;;;;;;2.97;0.90;;;13.80;74.90;;;;;;2470214;55;20969;-81
2022/11/02 00:42:18;;;;;;;11.10;5.07;;;13.80;74.90;;;;;;2241248;54;21035;-81
2022/11/02 00:44:45;;;;;;;9.65;4.47;;;13.90;75.10;;;;;;2482568;55;21542;-81
2022/11/02 00:47:12;;;;;;;8.88;3.33;;;14.00;75.20;;;;;;2466543;55;21109;-80
2022/11/02 00:49:38;;;;;;;4.97;1.90;;;14.00;75.20;;;;;;2472320;55;21069;-80
2022/11/02 00:52:05;;;;;;;4.47;1.62;;;14.00;75.10;;;;;;2244915;55;21052;-80
2022/11/02 00:54:31;;;;;;;4.93;1.20;;;14.10;75.20;;;;;;2458523;55;21531;-81
2022/11/02 00:56:57;;;;;;;5.65;1.30;;;14.10;75.10;;;;;;2464795;55;21536;-80
2022/11/02 00:59:24;;;;;;;3.40;0.85;;;14.20;75.20;;;;;;2452773;54;22354;-81
2022/11/02 01:01:50;;;;;;;2.75;0.85;;;14.20;75.20;;;;;;2254758;55;20973;-81
2022/11/02 01:04:17;;;;;;;6.57;0.80;;;14.30;75.30;;;;;;2467485;55;21516;-81
2022/11/02 01:06:43;;;;;;;2.75;0.70;;;14.30;75.20;;;;;;2241641;55;21065;-81
2022/11/02 01:09:10;;;;;;;2.35;0.60;;;14.40;75.20;;;;;;2466752;55;20984;-81
2022/11/02 01:11:36;;;;;;;3.25;0.98;;;14.40;75.20;;;;;;2244444;56;21080;-81
2022/11/02 01:14:03;;;;;;;4.82;0.90;;;14.50;75.20;;;;;;2462590;55;20955;-81
2022/11/02 01:16:31;;;;;;;4.47;0.80;;;14.50;75.20;;;;;;2260764;56;21300;-81
2022/11/02 01:18:57;;;;;;;3.37;0.90;;;14.50;75.10;;;;;;2478312;55;21635;-80
2022/11/02 01:21:24;;;;;;;3.10;0.70;;;14.60;75.20;;;;;;2493081;55;20985;-80
2022/11/02 01:23:51;;;;;;;3.55;0.73;;;14.60;75.10;;;;;;2508865;55;20915;-81
2022/11/02 01:26:18;;;;;;;2.80;1.05;;;14.60;75.10;;;;;;2269159;56;21020;-81
2022/11/02 01:28:44;;;;;;;5.30;0.68;;;14.70;75.10;;;;;;2489266;54;20915;-81
2022/11/02 01:31:10;;;;;;;4.32;0.80;;;14.70;75.10;;;;;;2510512;55;20919;-81
2022/11/02 01:33:41;;;;;;;5.32;0.60;;;14.80;75.10;;;;;;2462762;55;21397;-80
2022/11/02 01:36:08;;;;;;;2.17;0.60;;;14.80;75.00;;;;;;2476748;55;20947;-81
2022/11/02 01:38:34;;;;;;;2.50;0.70;;;14.80;75.00;;;;;;2256583;56;20949;-81
2022/11/02 01:41:00;;;;;;;3.47;0.65;;;14.90;75.10;;;;;;2246086;55;20961;-81
2022/11/02 01:43:29;;;;;;;3.05;0.90;;;14.90;75.00;;;;;;2500945;55;20997;-80
2022/11/02 01:46:03;;;;;;;3.95;0.80;;;14.90;74.90;;;;;;2476725;55;22021;-80
2022/11/02 01:48:47;;;;;;;2.45;0.62;;;14.90;74.80;;;;;;2480614;55;20981;-81
2022/11/02 01:51:34;;;;;;;0.95;0.35;;;15.00;74.40;;;;;;2486339;55;20976;-80
2022/11/02 01:54:04;;;;;;;1.45;0.50;;;15.00;74.70;;;;;;2267054;55;21560;-80
2022/11/02 01:56:31;;;;;;;2.08;0.60;;;15.00;74.60;;;;;;2507230;55;20924;-81
2022/11/02 01:59:03;;;;;;;6.00;1.17;;;15.00;74.60;;;;;;2480716;54;20938;-81
2022/11/02 02:01:30;;;;;;;5.25;0.95;;;15.00;74.40;;;;;;2487505;55;22055;-81
2022/11/02 02:03:56;;;;;;;1.80;0.50;;;15.00;74.50;;;;;;2486184;55;21399;-81
2022/11/02 02:06:25;;;;;;;3.78;0.80;;;15.00;74.50;;;;;;2276783;55;20994;-81
2022/11/02 02:08:51;;;;;;;2.62;0.70;;;15.10;74.50;;;;;;2252974;55;21068;-81
2022/11/02 02:11:31;;;;;;;3.97;0.90;;;15.10;74.30;;;;;;2501106;55;20923;-81
2022/11/02 02:14:10;;;;;;;1.87;0.70;;;15.10;74.00;;;;;;2276806;56;21031;-81
2022/11/02 02:18:34;;;;;;;1.98;0.65;;;15.10;74.40;;;;;;2281480;55;21051;-81
2022/11/02 02:24:26;;;;;;;3.73;1.00;;;15.20;73.30;;;;;;2277351;56;21000;-80
2022/11/02 02:27:08;;;;;;;1.98;0.60;;;15.20;73.10;;;;;;2279304;55;21081;-81
2022/11/02 02:30:01;;;;;;;4.10;0.90;;;15.20;73.80;;;;;;2472726;54;21172;-81
2022/11/02 02:32:49;;;;;;;1.98;0.60;;;15.10;74.50;;;;;;2451390;55;21751;-81
2022/11/02 02:37:18;;;;;;;2.42;0.60;;;15.10;73.80;;;;;;2481807;55;21033;-81
2022/11/02 02:40:50;;;;;;;4.28;0.68;;;15.20;73.00;;;;;;2484053;55;20980;-81
2022/11/02 02:44:03;;;;;;;3.70;0.80;;;15.20;73.30;;;;;;2280034;56;20983;-81
2022/11/02 02:46:55;;;;;;;1.90;0.70;;;15.20;72.90;;;;;;2498177;55;21857;-81
2022/11/02 02:49:30;;;;;;;1.80;0.65;;;15.10;73.70;;;;;;2483306;54;21186;-81
2022/11/02 02:51:56;;;;;;;3.53;0.70;;;15.10;73.50;;;;;;2236861;55;20961;-81
2022/11/02 02:54:25;;;;;;;2.65;0.80;;;15.10;73.70;;;;;;2263300;55;21037;-80
2022/11/02 02:56:53;;;;;;;3.60;0.75;;;15.10;73.60;;;;;;2258353;55;21009;-80
2022/11/02 02:59:31;;;;;;;3.45;1.00;;;15.10;73.60;;;;;;2246782;55;21021;-81
2022/11/02 03:01:57;;;;;;;2.17;0.68;;;15.10;73.80;;;;;;2254213;55;21007;-81
2022/11/02 03:04:24;;;;;;;4.07;0.82;;;15.00;73.80;;;;;;2281118;55;20987;-81
2022/11/02 03:06:52;;;;;;;3.70;0.82;;;15.10;74.10;;;;;;2499722;55;21008;-80
2022/11/02 03:09:39;;;;;;;2.95;0.80;;;15.00;74.80;;;;;;2481338;54;20933;-81
2022/11/02 03:13:34;;;;;;;4.53;0.73;;;15.00;73.80;;;;;;2469082;55;20984;-80
2022/11/02 03:17:33;;;;;;;1.65;0.50;;;15.10;73.40;;;;;;2467607;55;21049;-81
2022/11/02 03:20:17;;;;;;;2.37;0.65;;;15.10;74.50;;;;;;2510362;54;20927;-81
2022/11/02 03:23:27;;;;;;;6.60;0.90;;;15.10;74.60;;;;;;2267381;55;21029;-81
2022/11/02 03:26:01;;;;;;;2.50;0.62;;;15.20;74.70;;;;;;2276269;55;21781;-81
2022/11/02 03:29:20;;;;;;;4.72;0.93;;;15.20;75.00;;;;;;2487422;55;20984;-81
2022/11/02 03:31:57;;;;;;;4.03;0.85;;;15.20;74.90;;;;;;2272515;55;20951;-81
2022/11/02 03:34:45;;;;;;;5.60;0.73;;;15.20;74.80;;;;;;2278574;55;20930;-81
2022/11/02 03:37:32;;;;;;;3.70;0.73;;;15.30;74.80;;;;;;2506242;55;21070;-81
2022/11/02 03:40:15;;;;;;;3.72;0.93;;;15.30;75.20;;;;;;2247234;56;20946;-81
2022/11/02 03:42:41;;;;;;;3.60;0.80;;;15.30;75.00;;;;;;2511046;55;20920;-81
2022/11/02 03:45:16;;;;;;;4.97;1.20;;;15.40;75.40;;;;;;2506141;55;20915;-81
2022/11/02 03:47:44;;;;;;;6.28;1.30;;;15.50;75.20;;;;;;2277101;55;21121;-81
2022/11/02 03:50:11;;;;;;;2.53;0.88;;;15.40;75.20;;;;;;2254409;55;21018;-81
2022/11/02 03:52:38;;;;;;;4.10;0.70;;;15.50;75.40;;;;;;2509727;55;21545;-81
2022/11/02 03:55:30;;;;;;;3.67;0.98;;;15.50;75.40;;;;;;2503349;55;20964;-80
2022/11/02 03:57:56;;;;;;;2.70;0.70;;;15.50;74.40;;;;;;2250180;55;21860;-81
2022/11/02 04:00:23;;;;;;;2.33;0.80;;;15.60;75.30;;;;;;2235005;56;20985;-81
2022/11/02 04:02:54;;;;;;;2.62;0.85;;;15.60;75.10;;;;;;2242009;56;21065;-81
2022/11/02 04:05:30;;;;;;;4.93;1.00;;;15.60;74.90;;;;;;2501762;55;20907;-80
2022/11/02 04:14:36;;;;;;;4.82;0.85;;;15.70;75.20;;;;;;2506597;54;21055;-81
2022/11/02 04:20:50;;;;;;;3.58;0.60;;;15.70;75.00;;;;;;2489076;54;21036;-81
2022/11/02 04:26:03;;;;;;;2.45;0.73;;;15.80;75.10;;;;;;2503408;55;20959;-81
2022/11/02 04:28:30;;;;;;;3.75;0.70;;;15.80;75.10;;;;;;2485162;55;20957;-81
2022/11/02 04:30:59;;;;;;;3.28;0.60;;;15.80;75.20;;;;;;2478740;54;20969;-81
2022/11/02 04:33:32;;;;;;;4.45;0.80;;;15.80;75.00;;;;;;2256183;55;21013;-81
2022/11/02 04:36:00;;;;;;;3.55;0.90;;;15.90;75.20;;;;;;2477031;55;21061;-81
2022/11/02 04:38:41;;;;;;;5.45;1.05;;;15.90;75.10;;;;;;2249275;55;21008;-82
2022/11/02 04:43:56;;;;;;;6.90;1.15;;;15.90;75.00;;;;;;2459940;55;20941;-81
2022/11/02 04:46:24;;;;;;;3.78;0.90;;;15.90;75.00;;;;;;2490826;55;21197;-81
2022/11/02 04:48:51;;;;;;;4.95;0.75;;;16.00;75.00;;;;;;2463604;54;21005;-80
2022/11/02 04:51:19;;;;;;;4.68;1.17;;;16.00;75.00;;;;;;2250935;55;22435;-81
2022/11/02 04:53:46;;;;;;;4.70;1.00;;;16.00;74.90;;;;;;2473642;55;21085;-81
2022/11/02 04:56:13;;;;;;;2.47;0.70;;;16.00;74.90;;;;;;2237030;55;20993;-80
2022/11/02 04:58:39;;;;;;;2.30;0.65;;;16.00;74.80;;;;;;2465441;55;20927;-81
2022/11/02 05:01:15;;;;;;;3.25;0.90;;;16.00;74.80;;;;;;2474419;54;21131;-82
2022/11/02 05:03:41;;;;;;;3.25;0.88;;;16.00;74.70;;;;;;2249721;55;22030;-81
2022/11/02 05:06:11;;;;;;;5.30;0.80;;;16.00;74.60;;;;;;2461023;54;20997;-81
2022/11/02 05:08:37;;;;;;;3.10;1.00;;;16.00;74.40;;;;;;2264994;55;22048;-81
2022/11/02 05:11:04;;;;;;;3.87;0.90;;;16.10;74.60;;;;;;2264022;56;21001;-81
2022/11/02 05:13:30;;;;;;;6.68;1.20;;;16.10;74.60;;;;;;2485476;55;20994;-81
2022/11/02 05:15:57;;;;;;;5.40;1.50;;;16.20;74.60;;;;;;2457895;55;21009;-80
2022/11/02 05:18:24;;;;;;;4.62;1.00;;;16.10;74.50;;;;;;2261348;55;21068;-81
2022/11/02 05:20:55;;;;;;;3.53;0.80;;;16.10;74.50;;;;;;2250520;54;21190;-81
2022/11/02 05:23:21;;;;;;;2.67;0.77;;;16.10;74.50;;;;;;2457198;55;21051;-81
2022/11/02 05:26:08;;;;;;;3.53;0.80;;;16.10;74.40;;;;;;2232662;59;21115;-81
2022/11/02 05:28:34;;;;;;;1.90;0.57;;;16.20;73.70;;;;;;2450830;55;20973;-81
2022/11/02 05:31:01;;;;;;;4.15;0.88;;;15.90;74.20;;;;;;2465287;55;21031;-81
2022/11/02 05:33:29;;;;;;;2.10;0.65;;;16.20;74.40;;;;;;2488107;54;20957;-80
2022/11/02 05:35:57;;;;;;;6.32;0.95;;;16.20;74.30;;;;;;2484332;55;22299;-81
2022/11/02 05:38:23;;;;;;;3.75;0.95;;;16.20;74.20;;;;;;2239030;56;22210;-81
2022/11/02 05:40:52;;;;;;;2.75;0.70;;;16.20;74.10;;;;;;2468819;54;21118;-80
2022/11/02 05:43:18;;;;;;;3.28;0.70;;;16.20;74.00;;;;;;2448243;55;20967;-81
2022/11/02 05:45:59;;;;;;;5.00;1.10;;;16.20;74.10;;;;;;2250718;55;21102;-81
2022/11/02 05:48:26;;;;;;;2.90;0.93;;;16.20;73.80;;;;;;2464108;55;21000;-80
2022/11/02 05:51:00;;;;;;;3.42;0.90;;;16.20;74.20;;;;;;2469582;55;20937;-81
2022/11/02 05:53:36;;;;;;;6.97;1.90;;;16.20;74.00;;;;;;2259073;56;21461;-81
2022/11/02 05:56:03;;;;;;;4.62;0.98;;;16.20;74.10;;;;;;2244768;55;21068;-81
2022/11/02 05:58:30;;;;;;;4.05;1.05;;;16.20;74.10;;;;;;2246971;55;21108;-81
2022/11/02 06:01:00;;;;;;;2.17;0.70;;;16.20;74.10;;;;;;2462119;55;20973;-81
2022/11/02 06:03:27;;;;;;;3.97;1.10;;;16.20;73.90;;;;;;2498136;55;20974;-81
2022/11/02 06:06:04;;;;;;;2.12;0.77;;;16.20;74.10;;;;;;2235558;56;20985;-81
2022/11/02 06:08:32;;;;;;;2.28;0.70;;;16.20;73.60;;;;;;2450084;55;21152;-81
2022/11/02 06:11:02;;;;;;;2.53;0.68;;;16.20;74.10;;;;;;2234383;55;21104;-81
2022/11/02 06:13:28;;;;;;;4.40;0.85;;;16.20;74.20;;;;;;2470202;55;20996;-81
2022/11/02 06:15:58;;;;;;;4.22;1.10;;;16.20;74.20;;;;;;2463123;55;20985;-81
2022/11/02 06:18:25;;;;;;;3.62;0.85;;;16.00;73.80;;;;;;2458280;55;21052;-81
2022/11/02 06:20:51;;;;;;;3.22;0.75;;;16.20;74.20;;;;;;2240068;55;21033;-80
2022/11/02 06:23:18;;;;;;;3.10;0.90;;;16.20;74.20;;;;;;2444075;55;22010;-81
2022/11/02 06:25:51;;;;;;;4.37;1.10;;;16.20;74.10;;;;;;2257287;55;20970;-81
2022/11/02 06:28:18;;;;;;;4.03;0.80;;;16.20;73.80;;;;;;2465058;55;22015;-80
2022/11/02 06:30:44;;;;;;;4.57;1.10;;;16.30;74.20;;;;;;2271700;55;21063;-80
2022/11/02 06:33:11;;;;;;;4.32;1.00;;;16.30;74.20;;;;;;2504221;55;21420;-81
2022/11/02 06:35:38;;;;;;;3.28;1.00;;;16.30;74.20;;;;;;2271826;55;21592;-81
2022/11/02 06:38:04;;;;;;;5.40;1.05;;;16.30;74.20;;;;;;2503565;55;20931;-81
2022/11/02 06:40:31;;;;;;;2.42;0.77;;;16.30;74.10;;;;;;2503953;54;20951;-80
2022/11/02 06:42:58;;;;;;;4.28;1.00;;;16.30;74.00;;;;;;2504124;55;20943;-81
2022/11/02 06:45:55;;;;;;;2.72;1.10;;;16.30;74.00;;;;;;2503918;55;20998;-81
2022/11/02 06:48:22;;;;;;;3.05;0.82;;;16.30;74.10;;;;;;2503973;55;20920;-81
2022/11/02 06:50:48;;;;;;;4.87;1.30;;;16.40;74.10;;;;;;2271716;56;20927;-81
2022/11/02 06:53:15;;;;;;;5.10;1.33;;;16.30;74.10;;;;;;2504033;55;20999;-81
2022/11/02 06:55:41;;;;;;;3.30;1.17;;;16.20;74.00;;;;;;2272023;56;20931;-81
2022/11/02 06:58:08;;;;;;;4.00;1.30;;;16.30;74.20;;;;;;2503742;55;20996;-80
2022/11/02 07:00:34;;;;;;;4.53;1.35;;;16.30;74.10;;;;;;2271827;56;20986;-81
2022/11/02 07:03:13;;;;;;;3.40;1.45;;;16.30;74.10;;;;;;2503972;55;20927;-81
2022/11/02 07:05:40;;;;;;;4.70;1.20;;;16.30;74.10;;;;;;2271916;55;20922;-81
2022/11/02 07:08:07;;;;;;;3.70;1.00;;;16.30;74.10;;;;;;2271296;55;20923;-81
2022/11/02 07:10:36;;;;;;;2.87;1.00;;;16.30;74.10;;;;;;2503592;54;21010;-81
2022/11/02 07:13:02;;;;;;;5.20;1.00;;;16.50;74.40;;;;;;2504431;55;20951;-81
2022/11/02 07:15:29;;;;;;;5.22;1.10;;;16.40;74.30;;;;;;2272493;55;20959;-81
2022/11/02 07:17:56;;;;;;;4.28;0.98;;;16.40;74.30;;;;;;2486288;55;21084;-81
2022/11/02 07:20:23;;;;;;;6.53;1.20;;;16.50;74.40;;;;;;2252447;55;20919;-81
2022/11/02 07:23:05;;;;;;;5.62;0.90;;;16.40;74.30;;;;;;2503922;55;20919;-81
2022/11/02 07:25:32;;;;;;;2.17;0.80;;;16.40;74.10;;;;;;2269693;55;20938;-80
2022/11/02 07:27:59;;;;;;;4.85;1.73;;;16.20;74.10;;;;;;2503642;55;21154;-81
2022/11/02 07:30:29;;;;;;;3.85;1.20;;;16.40;74.30;;;;;;2266782;55;21040;-80
2022/11/02 07:32:56;;;;;;;3.53;1.00;;;16.50;74.40;;;;;;2251258;55;20923;-81
2022/11/02 07:35:22;;;;;;;3.87;1.10;;;16.60;74.50;;;;;;2228629;56;21103;-81
2022/11/02 07:37:58;;;;;;;3.72;1.10;;;16.60;74.60;;;;;;2478801;54;20981;-81
2022/11/02 07:40:24;;;;;;;5.72;1.02;;;16.50;74.00;;;;;;2457067;55;20974;-81
2022/11/02 07:42:52;;;;;;;3.17;1.27;;;16.50;74.40;;;;;;2488285;55;20923;-81
2022/11/02 07:45:20;;;;;;;5.78;1.45;;;16.50;74.40;;;;;;2270489;56;20919;-81
2022/11/02 07:47:46;;;;;;;4.53;0.90;;;16.70;74.60;;;;;;2462895;55;21016;-81
2022/11/02 07:50:13;;;;;;;2.53;0.82;;;16.60;74.50;;;;;;2241997;55;21162;-81
2022/11/02 07:52:53;;;;;;;3.25;1.27;;;16.60;74.50;;;;;;2460302;55;20992;-82
2022/11/02 07:55:22;;;;;;;3.67;1.00;;;16.70;74.10;;;;;;2241156;55;20953;-81
2022/11/02 07:58:08;;;;;;;3.30;0.70;;;16.70;74.60;;;;;;2485858;55;20982;-81
2022/11/02 08:00:38;;;;;;;5.20;1.10;;;16.70;74.00;;;;;;2270151;55;20939;-81
2022/11/02 08:03:05;;;;;;;2.80;0.90;;;16.80;74.80;;;;;;2502715;55;21042;-81
2022/11/02 08:05:34;;;;;;;1.42;0.52;;;16.80;75.00;;;;;;2271650;55;20923;-81
2022/11/02 08:08:06;;;;;;;2.55;0.60;;;16.80;75.10;;;;;;2271636;55;21950;-81
2022/11/02 08:10:33;;;;;;;3.47;0.80;;;16.90;75.10;;;;;;2256986;55;20968;-80
2022/11/02 08:13:01;;;;;;;3.97;0.95;;;16.90;75.00;;;;;;2467830;55;21029;-81
2022/11/02 08:15:27;;;;;;;3.62;0.98;;;17.00;75.00;;;;;;2233678;55;21036;-81
2022/11/02 08:18:08;;;;;;;3.08;0.80;;;17.00;74.90;;;;;;2447749;55;25209;-81
2022/11/02 08:20:35;;;;;;;5.57;1.45;;;17.10;74.30;;;;;;2274154;55;20959;-81
2022/11/02 08:23:02;;;;;;;5.12;1.05;;;17.10;74.90;;;;;;2501141;55;20940;-80
2022/11/02 08:25:28;;;;;;;3.10;0.90;;;17.10;74.70;;;;;;2503547;55;20935;-81
2022/11/02 08:27:59;;;;;;;4.85;0.85;;;17.10;74.70;;;;;;2478683;55;21001;-81
2022/11/02 08:30:26;;;;;;;5.00;1.10;;;17.20;74.60;;;;;;2255832;55;21044;-81
2022/11/02 08:32:52;;;;;;;2.65;0.73;;;17.20;74.70;;;;;;2463939;55;20997;-81
2022/11/02 08:35:22;;;;;;;2.42;0.80;;;17.20;74.70;;;;;;2245731;55;21055;-82
2022/11/02 08:37:56;;;;;;;3.80;0.90;;;17.30;74.70;;;;;;2502314;55;20935;-82
2022/11/02 08:40:23;;;;;;;5.55;1.05;;;17.40;74.30;;;;;;2503829;54;21417;-81
2022/11/02 08:43:04;;;;;;;2.65;0.93;;;17.30;74.50;;;;;;2482671;55;21131;-81
2022/11/02 08:45:31;;;;;;;4.55;1.00;;;17.40;74.20;;;;;;2420021;54;38992;-82
2022/11/02 08:48:05;;;;;;;4.22;0.90;;;17.40;74.60;;;;;;2452083;54;21156;-81
2022/11/02 08:50:32;;;;;;;4.05;1.10;;;17.40;74.50;;;;;;2467518;55;20989;-81
2022/11/02 08:52:58;;;;;;;2.17;0.65;;;17.50;74.60;;;;;;2467387;55;20969;-81
2022/11/02 08:55:25;;;;;;;3.53;1.10;;;17.50;74.70;;;;;;2464186;55;20944;-81
2022/11/02 08:57:53;;;;;;;3.35;0.95;;;17.50;74.60;;;;;;2465281;55;20989;-81
2022/11/02 09:00:21;;;;;;;3.72;0.90;;;17.50;74.40;;;;;;2241740;57;20984;-81
2022/11/02 09:03:10;;;;;;;3.92;0.90;;;17.60;74.40;;;;;;2449390;54;21001;-81
2022/11/02 09:05:38;;;;;;;2.87;0.82;;;17.60;73.30;;;;;;2470586;55;21040;-81
2022/11/02 09:08:07;;;;;;;2.83;0.75;;;17.60;74.40;;;;;;2464905;55;20949;-81
2022/11/02 09:10:34;;;;;;;2.78;0.88;;;17.60;74.40;;;;;;2254172;56;20938;-82
2022/11/02 09:13:02;;;;;;;7.07;1.17;;;17.70;74.50;;;;;;2479886;55;21128;-81
2022/11/02 09:15:29;;;;;;;3.70;1.08;;;17.70;74.40;;;;;;2468295;55;21043;-81
2022/11/02 09:17:55;;;;;;;3.30;1.00;;;17.70;74.30;;;;;;2459783;55;22050;-81
2022/11/02 09:20:22;;;;;;;4.35;1.00;;;17.80;74.40;;;;;;2462494;55;21064;-82
2022/11/02 09:22:49;;;;;;;6.28;1.40;;;17.80;74.40;;;;;;2246467;57;22187;-81
2022/11/02 09:25:16;;;;;;;3.78;0.77;;;17.80;74.40;;;;;;2249149;54;20949;-81
2022/11/02 09:27:42;;;;;;;4.80;1.08;;;17.80;74.40;;;;;;2473004;55;20964;-81
2022/11/02 09:30:09;;;;;;;3.00;0.85;;;17.80;74.40;;;;;;2478169;55;21516;-81
2022/11/02 09:32:36;;;;;;;5.68;1.15;;;17.90;74.50;;;;;;2442708;55;20939;-81
2022/11/02 09:35:05;;;;;;;4.03;0.80;;;17.90;74.50;;;;;;2248212;56;20989;-82
2022/11/02 09:37:32;;;;;;;3.78;0.90;;;18.00;74.70;;;;;;2461478;55;21044;-82
2022/11/02 09:39:59;;;;;;;2.03;0.62;;;18.00;74.70;;;;;;2467390;55;20987;-81
2022/11/02 09:42:30;;;;;;;4.62;1.30;;;18.10;74.60;;;;;;2473940;54;20988;-81
2022/11/02 09:45:05;;;;;;;4.03;1.10;;;18.10;74.30;;;;;;2472754;55;21036;-82
2022/11/02 09:47:35;;;;;;;4.07;1.00;;;18.20;74.10;;;;;;2457121;55;20941;-82
2022/11/02 09:50:41;;;;;;;6.18;1.35;;;18.20;74.50;;;;;;2460838;54;21033;-82
2022/11/02 09:53:09;;;;;;;3.12;0.90;;;18.20;73.80;;;;;;2258860;54;20989;-81
2022/11/02 09:55:36;;;;;;;4.68;1.10;;;18.30;74.40;;;;;;2233556;55;22234;-82
2022/11/02 09:58:11;;;;;;;3.67;1.02;;;18.30;74.40;;;;;;2220470;56;21031;-81
2022/11/02 10:00:38;;;;;;;2.80;0.77;;;18.30;74.00;;;;;;2248205;55;21778;-81
2022/11/02 10:08:28;;;;;;;4.53;0.95;;;18.30;74.40;;;;;;2464723;54;21063;-81
2022/11/02 10:11:22;;;;;;;2.60;0.80;;;18.40;72.80;;;;;;2476575;55;21048;-81
2022/11/02 10:14:04;;;;;;;2.65;0.68;;;18.50;73.80;;;;;;2477004;55;21028;-81
2022/11/02 10:16:35;;;;;;;2.97;0.70;;;18.50;73.80;;;;;;2481721;54;21024;-81
2022/11/02 10:19:02;;;;;;;3.75;0.70;;;18.50;74.20;;;;;;2470859;54;21017;-81
2022/11/02 10:21:33;;;;;;;3.08;0.80;;;18.50;74.50;;;;;;2465212;55;21469;-81
2022/11/02 10:24:35;;;;;;;2.97;0.80;;;18.60;74.50;;;;;;2255055;55;21075;-81
2022/11/02 10:27:04;;;;;;;2.12;0.80;;;18.60;74.70;;;;;;2254460;56;20996;-81
2022/11/02 10:29:55;;;;;;;3.45;1.10;;;18.60;74.70;;;;;;2476397;55;21460;-82
2022/11/02 10:32:21;;;;;;;4.75;0.90;;;18.70;74.40;;;;;;2478506;55;21311;-81
2022/11/02 10:34:48;;;;;;;4.10;0.85;;;18.70;74.80;;;;;;2480181;55;21085;-81
2022/11/02 10:40:08;;;;;;;4.15;1.20;;;18.70;74.80;;;;;;2471284;55;20952;-81
2022/11/02 10:43:18;;;;;;;3.75;0.70;;;18.70;73.60;;;;;;2471819;54;20994;-81
2022/11/02 10:46:23;;;;;;;1.98;0.88;;;18.80;73.10;;;;;;2468810;55;21000;-81
2022/11/02 10:49:35;;;;;;;1.80;0.57;;;18.80;73.60;;;;;;2480669;55;20997;-81
2022/11/02 10:52:02;;;;;;;3.33;0.80;;;18.90;74.00;;;;;;2256291;56;20973;-81
2022/11/02 10:54:29;;;;;;;2.97;0.80;;;18.90;75.00;;;;;;2467616;55;21128;-81
2022/11/02 10:56:56;;;;;;;2.50;0.80;;;18.90;74.70;;;;;;2467130;55;20930;-81
2022/11/02 10:59:24;;;;;;;4.28;0.98;;;18.90;74.50;;;;;;2457292;55;21621;-81
2022/11/02 11:02:07;;;;;;;3.90;1.10;;;19.00;74.40;;;;;;2236643;57;21028;-80
2022/11/02 11:04:33;;;;;;;;;;;19.00;73.40;;;;;;2451903;55;20966;-81
2022/11/02 11:07:11;;;;;;;3.60;0.80;;;19.10;73.00;;;;;;2479013;55;20062;-81
2022/11/02 11:09:49;;;;;;;4.35;1.30;;;19.00;73.40;;;;;;2477221;55;21045;-81
2022/11/02 11:12:19;;;;;;;4.93;0.80;;;19.10;74.00;;;;;;2254042;55;20949;-81
2022/11/02 11:14:52;;;;;;;2.78;0.82;;;19.00;73.90;;;;;;2482167;54;20993;-81
2022/11/02 11:17:48;;;;;;;2.75;0.75;;;19.10;73.60;;;;;;2249824;55;20985;-81
2022/11/02 11:20:44;;;;;;;3.12;0.82;;;19.10;74.00;;;;;;2252271;55;20963;-82
2022/11/02 11:23:23;;;;;;;3.37;1.00;;;19.10;74.10;;;;;;2243210;57;20968;-82
2022/11/02 11:25:58;;;;;;;3.85;0.88;;;19.10;72.90;;;;;;2476073;55;22499;-81
2022/11/02 11:28:51;;;;;;;5.53;0.80;;;19.10;73.60;;;;;;2474958;55;20953;-81
2022/11/02 11:31:17;;;;;;;;;;;19.10;73.00;;;;;;2256667;55;20986;-81
2022/11/02 11:33:51;;;;;;;2.62;0.60;;;19.20;72.40;;;;;;2473358;55;20078;-82
2022/11/02 11:36:31;;;;;;;2.55;1.02;;;19.20;73.90;;;;;;2253188;55;21683;-82
2022/11/02 11:39:23;;;;;;;3.30;0.77;;;19.20;72.90;;;;;;2249593;55;21017;-81
2022/11/02 11:41:49;;;;;;;2.33;0.85;;;19.20;72.60;;;;;;2482206;55;21020;-81
2022/11/02 11:44:15;;;;;;;4.72;0.93;;;19.30;74.00;;;;;;2480439;55;20929;-81
2022/11/02 11:46:55;;;;;;;4.55;0.98;;;19.30;73.80;;;;;;2482593;55;21882;-81
2022/11/02 11:49:32;;;;;;;4.72;0.93;;;19.30;72.60;;;;;;2255180;56;21084;-84
2022/11/02 11:52:14;;;;;;;4.50;0.65;;;19.30;72.90;;;;;;2481505;55;21032;-83
2022/11/02 11:54:41;;;;;;;2.90;0.80;;;19.30;73.70;;;;;;2482111;55;20997;-83
2022/11/02 11:59:45;;;;;;;1.60;0.55;;;19.30;73.90;;;;;;2481924;55;21323;-83
2022/11/02 12:02:31;;;;;;;4.47;0.90;;;19.30;72.20;;;;;;2255140;56;20983;-84
2022/11/02 12:04:59;;;;;;;2.35;0.50;;;19.40;73.00;;;;;;2483029;54;20948;-84
2022/11/02 12:07:50;;;;;;;3.25;0.70;;;19.40;73.60;;;;;;2254693;56;20952;-82
2022/11/02 12:10:31;;;;;;;3.47;0.80;;;19.40;72.90;;;;;;2482382;55;21766;-83
2022/11/02 12:15:08;;;;;;;5.22;0.90;;;19.40;73.30;;;;;;2482494;54;21048;-84
2022/11/02 12:18:02;;;;;;;2.65;0.70;;;19.40;71.70;;;;;;2482928;55;20932;-84
2022/11/02 12:21:57;;;;;;;2.85;0.60;;;19.40;72.40;;;;;;2254212;55;21088;-83
2022/11/02 12:25:00;;;;;;;2.37;0.68;;;19.40;72.00;;;;;;2482282;55;20968;-83
2022/11/02 12:29:13;;;;;;;2.10;0.75;;;19.40;72.90;;;;;;2256632;55;20896;-83
2022/11/02 12:31:41;;;;;;;2.85;0.80;;;19.50;72.60;;;;;;2483090;54;20932;-83
2022/11/02 12:35:04;;;;;;;4.07;0.80;;;19.50;74.70;;;;;;2482479;55;20943;-83
2022/11/02 12:41:02;;;;;;;4.18;0.90;;;19.60;72.80;;;;;;2483000;55;20944;-82
2022/11/02 12:43:46;;;;;;;3.28;0.75;;;19.80;73.70;;;;;;2470908;54;21451;-83
2022/11/02 12:46:34;;;;;;;4.03;0.80;;;19.90;75.20;;;;;;2479864;55;20961;-83
2022/11/02 12:51:45;;;;;;;4.40;1.25;;;19.90;74.20;;;;;;2474062;55;20981;-85
2022/11/02 12:54:20;;;;;;;4.60;0.88;;;20.10;73.90;;;;;;2478122;54;21026;-83
2022/11/02 12:56:50;;;;;;;7.03;1.23;;;20.20;74.40;;;;;;2472317;54;21060;-84
2022/11/02 12:59:31;;;;;;;3.87;0.93;;;20.20;74.50;;;;;;2468917;55;20895;-82
2022/11/02 13:02:08;;;;;;;3.30;0.90;;;20.40;73.40;;;;;;2481447;55;20956;-81
2022/11/02 13:05:42;;;;;;;2.67;0.80;;;20.30;74.30;;;;;;2478126;55;20953;-82
2022/11/02 13:08:15;;;;;;;2.58;0.77;;;20.40;72.40;;;;;;2248469;57;21824;-81
2022/11/02 13:10:53;;;;;;;6.40;1.73;;;20.50;73.70;;;;;;2473931;55;20932;-82
2022/11/02 13:13:27;;;;;;;3.00;1.05;;;20.60;73.30;;;;;;2473224;54;20980;-82
2022/11/02 13:15:53;;;;;;;4.62;1.08;;;20.60;74.70;;;;;;2479550;55;21503;-81
2022/11/02 13:18:23;;;;;;;3.58;0.90;;;20.60;74.30;;;;;;2251936;54;20993;-81
2022/11/02 13:20:54;;;;;;;2.42;0.75;;;20.70;74.30;;;;;;2475795;55;21920;-86
2022/11/02 13:23:48;;;;;;;2.90;0.82;;;20.80;73.80;;;;;;2480167;55;20980;-86
2022/11/02 13:26:40;;;;;;;4.68;0.70;;;20.80;71.70;;;;;;2483781;55;21041;-87
2022/11/02 13:29:40;;;;;;;2.08;0.60;;;20.90;71.60;;;;;;2481265;55;22076;-81
2022/11/02 13:32:26;;;;;;;4.40;2.08;;;20.90;71.60;;;;;;2466849;55;20977;-81
2022/11/02 13:34:56;;;;;;;5.03;1.25;;;20.90;72.00;;;;;;2247670;55;20957;-81
2022/11/02 13:37:37;;;;;;;3.85;1.00;;;21.00;73.50;;;;;;2467935;55;20956;-81
2022/11/02 13:40:15;;;;;;;3.83;0.80;;;21.00;71.90;;;;;;2461331;55;21103;-81
2022/11/02 13:43:37;;;;;;;4.37;0.90;;;21.00;72.40;;;;;;2477990;55;20993;-80
2022/11/02 13:49:53;;;;;;;2.42;0.70;;;21.10;71.80;;;;;;2230506;57;20977;-80
2022/11/02 13:52:24;;;;;;;2.58;0.60;;;21.10;71.90;;;;;;2480713;55;22202;-81
2022/11/02 13:54:52;;;;;;;3.42;0.90;;;21.20;73.80;;;;;;2463839;55;21726;-82
2022/11/02 13:57:34;;;;;;;4.28;0.90;;;21.20;73.40;;;;;;2473461;55;21091;-81
2022/11/02 14:00:02;;;;;;;3.75;1.20;;;21.30;71.90;;;;;;2469349;55;21018;-81
2022/11/02 14:02:35;;;;;;;4.95;1.17;;;21.30;73.20;;;;;;2459589;55;20949;-81
2022/11/02 14:05:02;;;;;;;5.87;1.12;;;21.30;73.30;;;;;;2234432;55;21037;-82
2022/11/02 14:07:32;;;;;;;5.28;1.00;;;21.30;73.40;;;;;;2458342;55;21013;-81
2022/11/02 14:10:16;;;;;;;5.40;1.12;;;21.40;72.60;;;;;;2468310;54;20957;-82